sensor_id;sensor_type;location;lat;lon;timestamp;pressure;altitude;pressure_sealevel;temperature;humidity
75536;BME280;64119;52.070;20.804;2023-02-18T00:01:24;99434.98;;;7.42;75.28
75536;BME280;64119;52.070;20.804;2023-02-18T00:03:51;99431.98;;;7.38;74.82
75536;BME280;64119;52.070;20.804;2023-02-18T00:06:22;99437.77;;;7.28;75.24
75536;BME280;64119;52.070;20.804;2023-02-18T00:08:49;99435.34;;;7.24;74.89
75536;BME280;64119;52.070;20.804;2023-02-18T00:11:17;99445.16;;;7.24;74.04
75536;BME280;64119;52.070;20.804;2023-02-18T00:13:52;99443.36;;;7.17;74.57
75536;BME280;64119;52.070;20.804;2023-02-18T00:16:20;99447.73;;;7.12;73.69
75536;BME280;64119;52.070;20.804;2023-02-18T00:18:47;99452.63;;;7.08;73.61
75536;BME280;64119;52.070;20.804;2023-02-18T00:21:13;99451.45;;;7.10;73.07
75536;BME280;64119;52.070;20.804;2023-02-18T00:23:40;99454.35;;;7.08;72.96
75536;BME280;64119;52.070;20.804;2023-02-18T00:26:12;99450.73;;;7.03;73.97
75536;BME280;64119;52.070;20.804;2023-02-18T00:28:39;99449.27;;;7.04;73.01
75536;BME280;64119;52.070;20.804;2023-02-18T00:31:08;99449.61;;;7.05;73.14
75536;BME280;64119;52.070;20.804;2023-02-18T00:33:35;99452.30;;;7.03;73.42
75536;BME280;64119;52.070;20.804;2023-02-18T00:36:07;99445.25;;;7.03;73.25
75536;BME280;64119;52.070;20.804;2023-02-18T00:38:35;99438.63;;;7.03;73.42
75536;BME280;64119;52.070;20.804;2023-02-18T00:41:01;99446.88;;;7.03;72.99
75536;BME280;64119;52.070;20.804;2023-02-18T00:43:28;99446.68;;;7.00;73.52
75536;BME280;64119;52.070;20.804;2023-02-18T00:45:55;99450.13;;;7.00;73.07
75536;BME280;64119;52.070;20.804;2023-02-18T00:48:22;99459.84;;;6.98;72.77
75536;BME280;64119;52.070;20.804;2023-02-18T00:50:48;99455.48;;;6.99;72.59
75536;BME280;64119;52.070;20.804;2023-02-18T00:53:14;99454.79;;;7.00;72.09
75536;BME280;64119;52.070;20.804;2023-02-18T00:55:42;99460.70;;;6.98;72.26
75536;BME280;64119;52.070;20.804;2023-02-18T00:58:09;99460.48;;;7.05;70.92
75536;BME280;64119;52.070;20.804;2023-02-18T01:00:37;99471.54;;;7.07;70.86
75536;BME280;64119;52.070;20.804;2023-02-18T01:03:04;99468.24;;;7.07;70.72
75536;BME280;64119;52.070;20.804;2023-02-18T01:05:31;99466.41;;;7.03;71.38
75536;BME280;64119;52.070;20.804;2023-02-18T01:07:58;99461.89;;;7.00;71.36
75536;BME280;64119;52.070;20.804;2023-02-18T01:10:24;99459.44;;;6.98;71.76
75536;BME280;64119;52.070;20.804;2023-02-18T01:12:51;99465.97;;;6.95;71.78
75536;BME280;64119;52.070;20.804;2023-02-18T01:15:18;99465.49;;;6.92;71.80
75536;BME280;64119;52.070;20.804;2023-02-18T01:17:44;99469.39;;;6.93;72.39
75536;BME280;64119;52.070;20.804;2023-02-18T01:20:12;99461.83;;;6.93;72.51
75536;BME280;64119;52.070;20.804;2023-02-18T01:22:39;99458.45;;;6.93;72.50
75536;BME280;64119;52.070;20.804;2023-02-18T01:25:07;99459.22;;;6.93;72.30
75536;BME280;64119;52.070;20.804;2023-02-18T01:27:33;99448.77;;;6.95;72.41
75536;BME280;64119;52.070;20.804;2023-02-18T01:30:01;99456.46;;;7.00;71.42
75536;BME280;64119;52.070;20.804;2023-02-18T01:32:28;99464.27;;;6.98;71.68
75536;BME280;64119;52.070;20.804;2023-02-18T01:34:54;99451.02;;;6.98;71.59
75536;BME280;64119;52.070;20.804;2023-02-18T01:37:20;99445.40;;;6.98;71.17
75536;BME280;64119;52.070;20.804;2023-02-18T01:39:47;99439.35;;;6.97;71.40
75536;BME280;64119;52.070;20.804;2023-02-18T01:42:25;99448.94;;;6.95;71.35
75536;BME280;64119;52.070;20.804;2023-02-18T01:44:53;99439.68;;;6.94;71.03
75536;BME280;64119;52.070;20.804;2023-02-18T01:47:20;99440.67;;;6.96;70.66
75536;BME280;64119;52.070;20.804;2023-02-18T01:49:49;99439.81;;;6.95;70.71
75536;BME280;64119;52.070;20.804;2023-02-18T01:52:21;99436.45;;;6.99;69.71
75536;BME280;64119;52.070;20.804;2023-02-18T01:54:52;99445.86;;;7.03;69.53
75536;BME280;64119;52.070;20.804;2023-02-18T01:57:32;99439.71;;;7.01;69.38
75536;BME280;64119;52.070;20.804;2023-02-18T02:00:05;99440.91;;;7.00;69.50
75536;BME280;64119;52.070;20.804;2023-02-18T02:02:43;99437.54;;;6.99;69.97
75536;BME280;64119;52.070;20.804;2023-02-18T02:05:11;99432.81;;;6.98;69.78
75536;BME280;64119;52.070;20.804;2023-02-18T02:07:39;99439.40;;;6.98;69.70
75536;BME280;64119;52.070;20.804;2023-02-18T02:10:08;99445.80;;;6.98;69.60
75536;BME280;64119;52.070;20.804;2023-02-18T02:18:16;99436.85;;;6.86;70.05
75536;BME280;64119;52.070;20.804;2023-02-18T02:26:47;99462.71;;;6.72;69.98
75536;BME280;64119;52.070;20.804;2023-02-18T02:37:45;99473.02;;;6.68;70.06
75536;BME280;64119;52.070;20.804;2023-02-18T02:43:20;99477.02;;;6.61;70.69
75536;BME280;64119;52.070;20.804;2023-02-18T02:48:34;99475.74;;;6.65;69.66
75536;BME280;64119;52.070;20.804;2023-02-18T02:51:13;99486.86;;;6.62;69.86
75536;BME280;64119;52.070;20.804;2023-02-18T02:53:42;99495.84;;;6.61;70.29
75536;BME280;64119;52.070;20.804;2023-02-18T02:56:14;99499.23;;;6.60;70.14
75536;BME280;64119;52.070;20.804;2023-02-18T02:58:41;99499.45;;;6.61;70.24
75536;BME280;64119;52.070;20.804;2023-02-18T03:07:12;99500.36;;;6.59;69.83
75536;BME280;64119;52.070;20.804;2023-02-18T03:12:43;99514.55;;;6.57;69.84
75536;BME280;64119;52.070;20.804;2023-02-18T03:17:59;99508.92;;;6.51;69.97
75536;BME280;64119;52.070;20.804;2023-02-18T03:20:36;99507.70;;;6.50;69.80
75536;BME280;64119;52.070;20.804;2023-02-18T03:23:08;99515.28;;;6.47;70.15
75536;BME280;64119;52.070;20.804;2023-02-18T03:25:37;99513.77;;;6.47;70.15
75536;BME280;64119;52.070;20.804;2023-02-18T03:28:09;99506.77;;;6.44;70.30
75536;BME280;64119;52.070;20.804;2023-02-18T03:30:42;99516.84;;;6.44;70.18
75536;BME280;64119;52.070;20.804;2023-02-18T03:33:14;99509.08;;;6.41;70.26
75536;BME280;64119;52.070;20.804;2023-02-18T03:35:43;99514.05;;;6.41;69.75
75536;BME280;64119;52.070;20.804;2023-02-18T03:38:32;99502.96;;;6.32;70.26
75536;BME280;64119;52.070;20.804;2023-02-18T03:41:02;99512.48;;;6.29;70.24
75536;BME280;64119;52.070;20.804;2023-02-18T03:43:29;99512.49;;;6.25;70.06
75536;BME280;64119;52.070;20.804;2023-02-18T03:45:56;99514.99;;;6.21;69.77
75536;BME280;64119;52.070;20.804;2023-02-18T03:48:24;99522.23;;;6.15;70.34
75536;BME280;64119;52.070;20.804;2023-02-18T03:50:51;99522.77;;;6.09;70.74
75536;BME280;64119;52.070;20.804;2023-02-18T03:53:17;99515.05;;;6.03;70.61
75536;BME280;64119;52.070;20.804;2023-02-18T03:55:44;99508.61;;;6.01;70.38
75536;BME280;64119;52.070;20.804;2023-02-18T03:58:10;99509.19;;;6.01;69.91
75536;BME280;64119;52.070;20.804;2023-02-18T04:00:37;99516.79;;;5.97;70.04
75536;BME280;64119;52.070;20.804;2023-02-18T04:03:03;99518.71;;;5.96;70.15
75536;BME280;64119;52.070;20.804;2023-02-18T04:05:29;99518.16;;;5.92;70.12
75536;BME280;64119;52.070;20.804;2023-02-18T04:07:56;99517.39;;;5.89;70.23
75536;BME280;64119;52.070;20.804;2023-02-18T04:10:22;99527.42;;;5.84;70.42
75536;BME280;64119;52.070;20.804;2023-02-18T04:12:48;99523.80;;;5.81;70.67
75536;BME280;64119;52.070;20.804;2023-02-18T04:15:15;99523.09;;;5.83;70.00
75536;BME280;64119;52.070;20.804;2023-02-18T04:17:41;99532.00;;;5.83;69.89
75536;BME280;64119;52.070;20.804;2023-02-18T04:20:08;99527.82;;;5.84;70.21
75536;BME280;64119;52.070;20.804;2023-02-18T04:22:34;99526.81;;;5.81;70.14
75536;BME280;64119;52.070;20.804;2023-02-18T04:25:01;99530.71;;;5.79;70.26
75536;BME280;64119;52.070;20.804;2023-02-18T04:27:27;99526.89;;;5.77;70.26
75536;BME280;64119;52.070;20.804;2023-02-18T04:29:53;99528.52;;;5.75;70.12
75536;BME280;64119;52.070;20.804;2023-02-18T04:32:20;99526.35;;;5.74;70.20
75536;BME280;64119;52.070;20.804;2023-02-18T04:34:46;99532.71;;;5.72;70.17
75536;BME280;64119;52.070;20.804;2023-02-18T04:37:12;99536.42;;;5.69;70.25
75536;BME280;64119;52.070;20.804;2023-02-18T04:39:39;99527.52;;;5.68;70.29
75536;BME280;64119;52.070;20.804;2023-02-18T04:42:05;99535.46;;;5.68;70.18
75536;BME280;64119;52.070;20.804;2023-02-18T04:44:35;99537.43;;;5.66;70.39
75536;BME280;64119;52.070;20.804;2023-02-18T04:47:03;99538.90;;;5.65;70.58
75536;BME280;64119;52.070;20.804;2023-02-18T04:49:30;99532.01;;;5.62;70.55
75536;BME280;64119;52.070;20.804;2023-02-18T04:51:57;99538.80;;;5.59;70.66
75536;BME280;64119;52.070;20.804;2023-02-18T04:54:23;99533.95;;;5.57;70.68
75536;BME280;64119;52.070;20.804;2023-02-18T04:56:49;99543.14;;;5.57;70.38
75536;BME280;64119;52.070;20.804;2023-02-18T04:59:16;99533.33;;;5.58;70.43
75536;BME280;64119;52.070;20.804;2023-02-18T05:01:42;99535.23;;;5.57;70.53
75536;BME280;64119;52.070;20.804;2023-02-18T05:04:08;99531.98;;;5.53;70.51
75536;BME280;64119;52.070;20.804;2023-02-18T05:06:35;99535.48;;;5.55;70.68
75536;BME280;64119;52.070;20.804;2023-02-18T05:09:05;99529.10;;;5.55;70.26
75536;BME280;64119;52.070;20.804;2023-02-18T05:11:31;99533.30;;;5.55;70.12
75536;BME280;64119;52.070;20.804;2023-02-18T05:13:58;99534.20;;;5.55;70.09
75536;BME280;64119;52.070;20.804;2023-02-18T05:16:24;99538.33;;;5.53;70.45
75536;BME280;64119;52.070;20.804;2023-02-18T05:18:50;99542.38;;;5.53;70.31
75536;BME280;64119;52.070;20.804;2023-02-18T05:21:17;99544.62;;;5.52;70.15
75536;BME280;64119;52.070;20.804;2023-02-18T05:23:43;99542.50;;;5.50;70.36
75536;BME280;64119;52.070;20.804;2023-02-18T05:26:09;99546.42;;;5.47;70.50
75536;BME280;64119;52.070;20.804;2023-02-18T05:28:36;99552.58;;;5.46;70.69
75536;BME280;64119;52.070;20.804;2023-02-18T05:31:03;99544.05;;;5.44;70.69
75536;BME280;64119;52.070;20.804;2023-02-18T05:33:29;99555.54;;;5.42;70.89
75536;BME280;64119;52.070;20.804;2023-02-18T05:35:55;99560.94;;;5.41;70.92
75536;BME280;64119;52.070;20.804;2023-02-18T05:38:22;99567.80;;;5.42;71.29
75536;BME280;64119;52.070;20.804;2023-02-18T05:40:48;99567.61;;;5.45;70.72
75536;BME280;64119;52.070;20.804;2023-02-18T05:43:15;99561.64;;;5.50;70.69
75536;BME280;64119;52.070;20.804;2023-02-18T05:45:41;99563.36;;;5.52;70.39
75536;BME280;64119;52.070;20.804;2023-02-18T05:48:07;99569.05;;;5.51;70.73
75536;BME280;64119;52.070;20.804;2023-02-18T05:50:34;99575.02;;;5.52;70.59
75536;BME280;64119;52.070;20.804;2023-02-18T05:53:01;99571.11;;;5.51;70.55
75536;BME280;64119;52.070;20.804;2023-02-18T05:55:27;99572.61;;;5.51;70.69
75536;BME280;64119;52.070;20.804;2023-02-18T05:57:53;99571.17;;;5.50;70.64
75536;BME280;64119;52.070;20.804;2023-02-18T06:00:20;99570.90;;;5.50;70.39
75536;BME280;64119;52.070;20.804;2023-02-18T06:02:46;99568.52;;;5.53;70.20
75536;BME280;64119;52.070;20.804;2023-02-18T06:05:13;99566.94;;;5.57;69.82
75536;BME280;64119;52.070;20.804;2023-02-18T06:07:39;99577.65;;;5.59;69.64
75536;BME280;64119;52.070;20.804;2023-02-18T06:10:06;99576.59;;;5.60;69.63
75536;BME280;64119;52.070;20.804;2023-02-18T06:12:32;99580.96;;;5.60;69.86
75536;BME280;64119;52.070;20.804;2023-02-18T06:14:59;99588.48;;;5.62;69.65
75536;BME280;64119;52.070;20.804;2023-02-18T06:17:25;99592.48;;;5.64;69.31
75536;BME280;64119;52.070;20.804;2023-02-18T06:19:51;99602.88;;;5.63;69.86
75536;BME280;64119;52.070;20.804;2023-02-18T06:22:18;99605.89;;;5.65;69.69
75536;BME280;64119;52.070;20.804;2023-02-18T06:24:44;99615.48;;;5.67;69.75
75536;BME280;64119;52.070;20.804;2023-02-18T06:27:11;99615.36;;;5.69;69.60
75536;BME280;64119;52.070;20.804;2023-02-18T06:29:37;99623.33;;;5.68;70.02
75536;BME280;64119;52.070;20.804;2023-02-18T06:32:03;99635.70;;;5.72;69.76
75536;BME280;64119;52.070;20.804;2023-02-18T06:34:30;99633.41;;;5.74;69.74
75536;BME280;64119;52.070;20.804;2023-02-18T06:36:56;99634.70;;;5.79;69.23
75536;BME280;64119;52.070;20.804;2023-02-18T06:39:23;99637.05;;;5.82;69.24
75536;BME280;64119;52.070;20.804;2023-02-18T06:41:49;99636.02;;;5.81;69.31
75536;BME280;64119;52.070;20.804;2023-02-18T06:44:15;99644.02;;;5.82;69.61
75536;BME280;64119;52.070;20.804;2023-02-18T06:46:43;99642.14;;;5.85;69.51
75536;BME280;64119;52.070;20.804;2023-02-18T06:49:10;99644.27;;;5.88;69.15
75536;BME280;64119;52.070;20.804;2023-02-18T06:51:36;99644.95;;;5.89;69.39
75536;BME280;64119;52.070;20.804;2023-02-18T06:54:02;99647.88;;;5.90;69.31
75536;BME280;64119;52.070;20.804;2023-02-18T06:56:31;99649.16;;;5.94;69.01
75536;BME280;64119;52.070;20.804;2023-02-18T06:58:57;99649.24;;;5.96;68.98
75536;BME280;64119;52.070;20.804;2023-02-18T07:01:23;99650.38;;;5.98;68.62
75536;BME280;64119;52.070;20.804;2023-02-18T07:03:50;99660.34;;;6.00;68.56
75536;BME280;64119;52.070;20.804;2023-02-18T07:06:16;99658.75;;;6.04;68.61
75536;BME280;64119;52.070;20.804;2023-02-18T07:08:42;99666.40;;;6.03;68.81
75536;BME280;64119;52.070;20.804;2023-02-18T07:11:09;99672.92;;;6.02;68.91
75536;BME280;64119;52.070;20.804;2023-02-18T07:13:35;99668.63;;;6.02;68.93
75536;BME280;64119;52.070;20.804;2023-02-18T07:16:02;99676.37;;;6.05;68.33
75536;BME280;64119;52.070;20.804;2023-02-18T07:18:28;99676.70;;;6.05;68.51
75536;BME280;64119;52.070;20.804;2023-02-18T07:20:54;99675.66;;;6.06;68.11
75536;BME280;64119;52.070;20.804;2023-02-18T07:23:21;99675.42;;;6.02;68.61
75536;BME280;64119;52.070;20.804;2023-02-18T07:25:47;99676.31;;;6.03;68.47
75536;BME280;64119;52.070;20.804;2023-02-18T07:28:13;99686.14;;;6.05;68.64
75536;BME280;64119;52.070;20.804;2023-02-18T07:30:40;99687.54;;;6.04;68.69
75536;BME280;64119;52.070;20.804;2023-02-18T07:33:06;99680.50;;;6.02;68.75
75536;BME280;64119;52.070;20.804;2023-02-18T07:35:33;99674.06;;;6.05;68.55
75536;BME280;64119;52.070;20.804;2023-02-18T07:37:59;99673.31;;;6.03;68.44
75536;BME280;64119;52.070;20.804;2023-02-18T07:40:28;99677.92;;;6.06;68.43
75536;BME280;64119;52.070;20.804;2023-02-18T07:42:54;99672.63;;;6.06;68.64
75536;BME280;64119;52.070;20.804;2023-02-18T07:45:20;99665.67;;;6.12;68.16
75536;BME280;64119;52.070;20.804;2023-02-18T07:47:47;99665.05;;;6.16;68.43
75536;BME280;64119;52.070;20.804;2023-02-18T07:50:13;99665.02;;;6.21;68.50
75536;BME280;64119;52.070;20.804;2023-02-18T07:52:39;99665.39;;;6.26;68.34
75536;BME280;64119;52.070;20.804;2023-02-18T07:55:06;99671.11;;;6.31;67.88
75536;BME280;64119;52.070;20.804;2023-02-18T07:57:33;99670.20;;;6.33;68.10
75536;BME280;64119;52.070;20.804;2023-02-18T08:00:19;99673.95;;;6.37;67.72
75536;BME280;64119;52.070;20.804;2023-02-18T08:02:46;99664.89;;;6.45;67.99
75536;BME280;64119;52.070;20.804;2023-02-18T08:05:12;99663.09;;;6.52;67.56
75536;BME280;64119;52.070;20.804;2023-02-18T08:07:39;99663.04;;;6.56;67.50
75536;BME280;64119;52.070;20.804;2023-02-18T08:10:06;99669.13;;;6.66;67.34
75536;BME280;64119;52.070;20.804;2023-02-18T08:12:32;99673.86;;;6.75;66.82
75536;BME280;64119;52.070;20.804;2023-02-18T08:14:59;99679.19;;;6.85;66.69
75536;BME280;64119;52.070;20.804;2023-02-18T08:17:25;99678.11;;;7.00;66.04
75536;BME280;64119;52.070;20.804;2023-02-18T08:19:52;99680.41;;;7.00;66.17
75536;BME280;64119;52.070;20.804;2023-02-18T08:22:18;99683.56;;;6.98;65.68
75536;BME280;64119;52.070;20.804;2023-02-18T08:24:44;99677.45;;;6.93;66.06
75536;BME280;64119;52.070;20.804;2023-02-18T08:27:11;99674.51;;;6.92;65.88
75536;BME280;64119;52.070;20.804;2023-02-18T08:29:38;99676.02;;;6.92;65.88
75536;BME280;64119;52.070;20.804;2023-02-18T08:32:04;99680.55;;;7.10;65.24
75536;BME280;64119;52.070;20.804;2023-02-18T08:34:31;99676.46;;;7.22;64.01
75536;BME280;64119;52.070;20.804;2023-02-18T08:36:57;99685.21;;;7.21;64.44
75536;BME280;64119;52.070;20.804;2023-02-18T08:39:23;99689.21;;;7.21;64.18
75536;BME280;64119;52.070;20.804;2023-02-18T08:41:50;99681.30;;;7.17;64.07
75536;BME280;64119;52.070;20.804;2023-02-18T08:44:16;99675.58;;;7.13;64.43
75536;BME280;64119;52.070;20.804;2023-02-18T08:46:46;99678.04;;;7.09;64.69
75536;BME280;64119;52.070;20.804;2023-02-18T08:49:14;99678.87;;;7.11;64.63
75536;BME280;64119;52.070;20.804;2023-02-18T08:51:40;99686.09;;;7.19;64.90
75536;BME280;64119;52.070;20.804;2023-02-18T08:54:06;99682.70;;;7.30;64.64
75536;BME280;64119;52.070;20.804;2023-02-18T08:56:33;99693.83;;;7.25;63.96
75536;BME280;64119;52.070;20.804;2023-02-18T08:58:59;99695.23;;;7.12;64.63
75536;BME280;64119;52.070;20.804;2023-02-18T09:01:25;99704.94;;;7.09;65.09
75536;BME280;64119;52.070;20.804;2023-02-18T09:03:52;99700.13;;;7.14;64.72
75536;BME280;64119;52.070;20.804;2023-02-18T09:06:19;99699.42;;;7.12;64.57
75536;BME280;64119;52.070;20.804;2023-02-18T09:08:46;99698.77;;;7.13;64.75
75536;BME280;64119;52.070;20.804;2023-02-18T09:11:13;99694.77;;;7.10;64.73
75536;BME280;64119;52.070;20.804;2023-02-18T09:13:39;99702.63;;;7.09;64.54
75536;BME280;64119;52.070;20.804;2023-02-18T09:16:10;99704.80;;;7.25;63.86
75536;BME280;64119;52.070;20.804;2023-02-18T09:18:37;99707.55;;;7.41;63.23
75536;BME280;64119;52.070;20.804;2023-02-18T09:21:06;99714.52;;;7.48;62.62
75536;BME280;64119;52.070;20.804;2023-02-18T09:23:35;99715.48;;;7.35;62.93
75536;BME280;64119;52.070;20.804;2023-02-18T09:26:07;99714.64;;;7.33;63.24
75536;BME280;64119;52.070;20.804;2023-02-18T09:28:35;99716.34;;;7.35;63.61
75536;BME280;64119;52.070;20.804;2023-02-18T09:31:13;99720.77;;;7.40;63.24
75536;BME280;64119;52.070;20.804;2023-02-18T09:33:44;99726.27;;;7.35;62.90
75536;BME280;64119;52.070;20.804;2023-02-18T09:36:12;99722.02;;;7.35;63.22
75536;BME280;64119;52.070;20.804;2023-02-18T09:38:39;99731.09;;;7.37;63.60
75536;BME280;64119;52.070;20.804;2023-02-18T09:41:20;99722.86;;;7.35;63.84
75536;BME280;64119;52.070;20.804;2023-02-18T09:43:48;99731.16;;;7.35;63.99
75536;BME280;64119;52.070;20.804;2023-02-18T09:46:38;99735.80;;;7.34;63.75
75536;BME280;64119;52.070;20.804;2023-02-18T09:49:13;99728.62;;;7.28;63.83
75536;BME280;64119;52.070;20.804;2023-02-18T09:51:41;99733.19;;;7.27;63.51
75536;BME280;64119;52.070;20.804;2023-02-18T09:54:13;99729.45;;;7.24;63.06
75536;BME280;64119;52.070;20.804;2023-02-18T09:56:41;99737.83;;;7.20;64.07
75536;BME280;64119;52.070;20.804;2023-02-18T09:59:16;99737.09;;;7.22;63.71
75536;BME280;64119;52.070;20.804;2023-02-18T10:01:46;99739.48;;;7.24;62.51
75536;BME280;64119;52.070;20.804;2023-02-18T10:04:17;99742.10;;;7.17;62.99
75536;BME280;64119;52.070;20.804;2023-02-18T10:06:45;99741.55;;;7.18;63.52
75536;BME280;64119;52.070;20.804;2023-02-18T10:09:33;99741.60;;;7.19;63.17
75536;BME280;64119;52.070;20.804;2023-02-18T10:12:13;99749.63;;;7.16;63.38
75536;BME280;64119;52.070;20.804;2023-02-18T10:14:42;99753.33;;;7.13;63.88
75536;BME280;64119;52.070;20.804;2023-02-18T10:17:13;99746.79;;;7.13;63.81
75536;BME280;64119;52.070;20.804;2023-02-18T10:19:43;99744.66;;;7.18;64.17
75536;BME280;64119;52.070;20.804;2023-02-18T10:22:12;99733.51;;;7.24;63.37
75536;BME280;64119;52.070;20.804;2023-02-18T10:24:56;99733.58;;;7.24;63.45
75536;BME280;64119;52.070;20.804;2023-02-18T10:27:27;99734.77;;;7.27;63.71
75536;BME280;64119;52.070;20.804;2023-02-18T10:30:28;99733.40;;;7.37;63.78
75536;BME280;64119;52.070;20.804;2023-02-18T10:33:21;99742.46;;;7.41;63.43
75536;BME280;64119;52.070;20.804;2023-02-18T10:35:56;99729.01;;;7.40;63.55
75536;BME280;64119;52.070;20.804;2023-02-18T10:39:01;99731.90;;;7.38;63.24
75536;BME280;64119;52.070;20.804;2023-02-18T10:49:47;99712.92;;;7.39;64.97
75536;BME280;64119;52.070;20.804;2023-02-18T10:52:19;99716.14;;;7.43;63.72
75536;BME280;64119;52.070;20.804;2023-02-18T10:57:22;99708.85;;;7.41;64.07
75536;BME280;64119;52.070;20.804;2023-02-18T10:59:58;99708.27;;;7.43;64.00
75536;BME280;64119;52.070;20.804;2023-02-18T11:02:29;99713.69;;;7.44;64.57
75536;BME280;64119;52.070;20.804;2023-02-18T11:04:58;99713.65;;;7.52;64.58
75536;BME280;64119;52.070;20.804;2023-02-18T11:07:32;99706.77;;;7.59;64.40
75536;BME280;64119;52.070;20.804;2023-02-18T11:10:12;99709.10;;;7.59;63.77
75536;BME280;64119;52.070;20.804;2023-02-18T11:12:57;99704.54;;;7.57;63.98
75536;BME280;64119;52.070;20.804;2023-02-18T11:15:27;99702.77;;;7.59;63.08
75536;BME280;64119;52.070;20.804;2023-02-18T11:18:11;99698.88;;;7.55;62.59
75536;BME280;64119;52.070;20.804;2023-02-18T11:20:39;99696.91;;;7.49;63.13
75536;BME280;64119;52.070;20.804;2023-02-18T11:25:36;99690.89;;;7.49;63.22
75536;BME280;64119;52.070;20.804;2023-02-18T11:28:06;99693.61;;;7.49;62.88
75536;BME280;64119;52.070;20.804;2023-02-18T11:30:53;99684.55;;;7.45;63.10
75536;BME280;64119;52.070;20.804;2023-02-18T11:33:34;99681.96;;;7.46;62.94
75536;BME280;64119;52.070;20.804;2023-02-18T11:36:18;99676.49;;;7.48;62.73
75536;BME280;64119;52.070;20.804;2023-02-18T11:38:57;99674.51;;;7.47;63.03
75536;BME280;64119;52.070;20.804;2023-02-18T11:41:36;99665.19;;;7.52;62.55
75536;BME280;64119;52.070;20.804;2023-02-18T11:44:05;99667.80;;;7.57;62.89
75536;BME280;64119;52.070;20.804;2023-02-18T11:46:32;99673.31;;;7.71;62.47
75536;BME280;64119;52.070;20.804;2023-02-18T11:49:21;99674.78;;;7.79;61.95
75536;BME280;64119;52.070;20.804;2023-02-18T11:51:48;99670.10;;;7.75;61.97
75536;BME280;64119;52.070;20.804;2023-02-18T11:54:27;99662.18;;;7.75;61.96
75536;BME280;64119;52.070;20.804;2023-02-18T11:57:04;99669.89;;;7.74;61.41
75536;BME280;64119;52.070;20.804;2023-02-18T11:59:34;99664.65;;;7.69;61.38
75536;BME280;64119;52.070;20.804;2023-02-18T12:02:02;99663.81;;;7.75;61.41
75536;BME280;64119;52.070;20.804;2023-02-18T12:04:45;99651.35;;;7.76;61.02
75536;BME280;64119;52.070;20.804;2023-02-18T12:07:20;99646.34;;;7.74;61.54
75536;BME280;64119;52.070;20.804;2023-02-18T12:09:52;99655.22;;;7.76;61.38
75536;BME280;64119;52.070;20.804;2023-02-18T12:12:39;99641.67;;;7.75;61.20
75536;BME280;64119;52.070;20.804;2023-02-18T12:15:15;99644.13;;;7.69;60.82
75536;BME280;64119;52.070;20.804;2023-02-18T12:18:15;99638.47;;;7.68;61.70
75536;BME280;64119;52.070;20.804;2023-02-18T12:35:16;99631.67;;;7.45;61.84
75536;BME280;64119;52.070;20.804;2023-02-18T12:41:07;99623.94;;;7.42;62.04
75536;BME280;64119;52.070;20.804;2023-02-18T12:44:05;99627.56;;;7.44;61.73
75536;BME280;64119;52.070;20.804;2023-02-18T12:46:53;99623.52;;;7.45;61.94
75536;BME280;64119;52.070;20.804;2023-02-18T12:53:04;99603.33;;;7.55;61.59
75536;BME280;64119;52.070;20.804;2023-02-18T13:01:22;99598.88;;;7.61;61.23
75536;BME280;64119;52.070;20.804;2023-02-18T13:14:43;99594.28;;;7.44;61.76
75536;BME280;64119;52.070;20.804;2023-02-18T13:29:51;99593.96;;;7.76;61.55
75536;BME280;64119;52.070;20.804;2023-02-18T13:35:14;99600.98;;;7.59;61.90
75536;BME280;64119;52.070;20.804;2023-02-18T13:40:24;99609.27;;;7.45;62.60
75536;BME280;64119;52.070;20.804;2023-02-18T13:42:53;99613.17;;;7.41;62.53
75536;BME280;64119;52.070;20.804;2023-02-18T13:45:29;99608.61;;;7.38;62.67
75536;BME280;64119;52.070;20.804;2023-02-18T13:47:57;99612.84;;;7.29;63.13
75536;BME280;64119;52.070;20.804;2023-02-18T13:50:30;99604.05;;;7.26;63.16
75536;BME280;64119;52.070;20.804;2023-02-18T14:01:13;99597.86;;;7.09;63.72
75536;BME280;64119;52.070;20.804;2023-02-18T14:06:22;99595.06;;;7.06;63.85
75536;BME280;64119;52.070;20.804;2023-02-18T14:08:49;99588.81;;;7.02;64.09
75536;BME280;64119;52.070;20.804;2023-02-18T14:14:33;99578.88;;;6.99;64.54
75536;BME280;64119;52.070;20.804;2023-02-18T14:17:12;99579.33;;;6.98;64.34
75536;BME280;64119;52.070;20.804;2023-02-18T14:19:39;99571.12;;;6.95;64.81
75536;BME280;64119;52.070;20.804;2023-02-18T14:24:59;99565.33;;;6.93;64.85
75536;BME280;64119;52.070;20.804;2023-02-18T14:27:26;99559.64;;;6.92;65.11
75536;BME280;64119;52.070;20.804;2023-02-18T14:29:52;99560.23;;;6.92;65.07
75536;BME280;64119;52.070;20.804;2023-02-18T14:32:19;99553.09;;;6.90;65.19
75536;BME280;64119;52.070;20.804;2023-02-18T14:35:05;99553.66;;;6.88;65.24
75536;BME280;64119;52.070;20.804;2023-02-18T14:40:52;99555.13;;;6.88;64.30
75536;BME280;64119;52.070;20.804;2023-02-18T14:51:43;99552.98;;;6.72;65.13
75536;BME280;64119;52.070;20.804;2023-02-18T14:54:16;99561.05;;;6.69;65.24
75536;BME280;64119;52.070;20.804;2023-02-18T14:57:06;99556.14;;;6.64;64.94
75536;BME280;64119;52.070;20.804;2023-02-18T14:59:36;99559.70;;;6.57;64.82
75536;BME280;64119;52.070;20.804;2023-02-18T15:02:20;99557.23;;;6.53;64.95
75536;BME280;64119;52.070;20.804;2023-02-18T15:04:47;99554.95;;;6.47;64.78
75536;BME280;64119;52.070;20.804;2023-02-18T15:07:19;99553.77;;;6.43;64.66
75536;BME280;64119;52.070;20.804;2023-02-18T15:09:51;99553.79;;;6.42;64.78
75536;BME280;64119;52.070;20.804;2023-02-18T15:12:21;99546.18;;;6.36;65.75
75536;BME280;64119;52.070;20.804;2023-02-18T15:14:52;99547.83;;;6.33;66.15
75536;BME280;64119;52.070;20.804;2023-02-18T15:17:23;99550.01;;;6.30;66.57
75536;BME280;64119;52.070;20.804;2023-02-18T15:19:55;99539.98;;;6.27;67.40
75536;BME280;64119;52.070;20.804;2023-02-18T15:22:24;99537.63;;;6.26;67.65
75536;BME280;64119;52.070;20.804;2023-02-18T15:24:53;99535.13;;;6.23;68.39
75536;BME280;64119;52.070;20.804;2023-02-18T15:27:26;99544.38;;;6.19;68.84
75536;BME280;64119;52.070;20.804;2023-02-18T15:30:20;99543.77;;;6.17;69.15